createdAt,value
2019-03-24T00:01:03.449Z,36.53
2019-03-24T00:03:33.026Z,37.57
2019-03-24T00:06:02.341Z,38.10
2019-03-24T00:08:31.470Z,35.03
2019-03-24T00:11:01.137Z,34.73
2019-03-24T00:13:30.239Z,37.60
2019-03-24T00:15:59.772Z,42.43
2019-03-24T00:18:28.666Z,42.47
2019-03-24T00:20:57.561Z,42.63
2019-03-24T00:23:27.277Z,39.13
2019-03-24T00:25:56.112Z,41.77
2019-03-24T00:28:25.074Z,39.73
2019-03-24T00:30:54.759Z,41.80
2019-03-24T00:33:23.606Z,41.80
2019-03-24T00:35:52.542Z,40.53
2019-03-24T00:38:22.248Z,42.37
2019-03-24T00:40:51.105Z,38.43
2019-03-24T00:43:20.610Z,40.83
2019-03-24T00:45:50.140Z,39.53
2019-03-24T00:48:19.425Z,40.77
2019-03-24T00:50:49.121Z,40.27
2019-03-24T00:53:18.054Z,43.53
2019-03-24T00:55:49.149Z,45.17
2019-03-24T00:58:19.505Z,46.10
2019-03-24T01:00:50.753Z,42.77
2019-03-24T01:03:19.752Z,42.53
2019-03-24T01:05:48.744Z,44.57
2019-03-24T01:08:18.332Z,49.93
2019-03-24T01:10:47.299Z,50.43
2019-03-24T01:13:17.145Z,50.13
2019-03-24T01:15:47.919Z,47.90
2019-03-24T01:18:17.088Z,53.37
2019-03-24T01:20:47.257Z,53.20
2019-03-24T01:23:16.784Z,49.30
2019-03-24T01:25:45.798Z,50.90
2019-03-24T01:28:14.596Z,47.87
2019-03-24T01:30:43.653Z,49.53
2019-03-24T01:33:12.994Z,49.40
2019-03-24T01:35:42.494Z,50.00
2019-03-24T01:38:11.553Z,50.77
2019-03-24T01:40:40.318Z,51.73
2019-03-24T01:43:09.535Z,52.77
2019-03-24T01:45:38.258Z,52.83
2019-03-24T01:48:07.346Z,52.87
2019-03-24T01:50:37.029Z,55.67
2019-03-24T01:53:05.966Z,58.70
2019-03-24T01:55:35.653Z,57.47
2019-03-24T01:58:04.501Z,57.87
2019-03-24T02:00:33.334Z,55.53
2019-03-24T02:03:02.522Z,55.73
2019-03-24T02:05:32.205Z,56.40
2019-03-24T02:08:01.288Z,57.20
2019-03-24T02:10:30.840Z,57.40
2019-03-24T02:12:59.745Z,58.27
2019-03-24T02:15:28.533Z,54.67
2019-03-24T02:17:57.470Z,62.53
2019-03-24T02:20:26.220Z,59.67
2019-03-24T02:22:55.252Z,62.53
2019-03-24T02:25:25.001Z,62.60
2019-03-24T02:27:53.906Z,57.13
2019-03-24T02:30:23.570Z,65.57
2019-03-24T02:32:53.007Z,61.90
2019-03-24T02:35:21.906Z,63.17
2019-03-24T02:37:50.649Z,64.80
2019-03-24T02:40:19.625Z,62.73
2019-03-24T02:42:48.475Z,61.20
2019-03-24T02:45:17.939Z,62.40
2019-03-24T02:47:48.298Z,65.40
2019-03-24T02:50:17.214Z,69.80
2019-03-24T02:52:46.243Z,68.20
2019-03-24T02:55:15.788Z,68.33
2019-03-24T02:57:44.954Z,69.27
2019-03-24T03:00:14.765Z,69.10
2019-03-24T03:02:44.115Z,68.10
2019-03-24T03:05:13.970Z,67.90
2019-03-24T03:07:42.739Z,66.93
2019-03-24T03:10:13.024Z,68.97
2019-03-24T03:12:41.909Z,67.33
2019-03-24T03:15:11.999Z,67.67
2019-03-24T03:17:40.974Z,66.20
2019-03-24T03:20:10.882Z,73.37
2019-03-24T03:22:40.098Z,74.17
2019-03-24T03:25:09.470Z,77.07
2019-03-24T03:27:39.111Z,76.80
2019-03-24T03:30:09.336Z,70.53
2019-03-24T03:32:38.343Z,77.40
2019-03-24T03:35:08.454Z,68.17
2019-03-24T03:37:37.566Z,70.40
2019-03-24T03:40:07.464Z,81.50
2019-03-24T03:42:36.758Z,76.10
2019-03-24T03:45:06.487Z,80.93
2019-03-24T03:47:35.424Z,74.40
2019-03-24T03:50:04.880Z,69.37
2019-03-24T03:52:34.389Z,74.97
2019-03-24T03:55:03.459Z,70.03
2019-03-24T03:57:32.390Z,75.63
2019-03-24T04:00:01.117Z,71.83
2019-03-24T04:02:30.322Z,72.07
2019-03-24T04:04:59.843Z,71.57
2019-03-24T04:07:29.375Z,73.43
2019-03-24T04:09:58.263Z,72.20
2019-03-24T04:12:27.952Z,75.30
2019-03-24T04:14:57.077Z,74.17
2019-03-24T04:17:26.322Z,76.80
2019-03-24T04:19:55.840Z,77.97
2019-03-24T04:22:26.119Z,70.03
2019-03-24T04:24:55.041Z,73.80
2019-03-24T04:27:24.151Z,76.00
2019-03-24T04:29:53.274Z,74.17
2019-03-24T04:32:22.548Z,70.33
2019-03-24T04:34:51.486Z,72.20
2019-03-24T04:37:21.023Z,73.93
2019-03-24T04:39:50.236Z,76.03
2019-03-24T04:42:19.182Z,75.17
2019-03-24T04:44:48.454Z,74.17
2019-03-24T04:47:17.162Z,78.83
2019-03-24T04:49:46.406Z,79.17
2019-03-24T04:52:15.187Z,74.17
2019-03-24T04:54:44.392Z,77.53
2019-03-24T04:57:13.138Z,70.60
2019-03-24T04:59:42.405Z,75.70
2019-03-24T05:02:11.313Z,70.57
2019-03-24T05:04:40.996Z,72.83
2019-03-24T05:07:10.533Z,72.33
2019-03-24T05:09:40.438Z,71.83
2019-03-24T05:12:09.545Z,69.27
2019-03-24T05:14:38.453Z,70.73
2019-03-24T05:17:08.109Z,72.03
2019-03-24T05:19:37.646Z,73.60
2019-03-24T05:22:06.581Z,81.80
2019-03-24T05:24:35.797Z,67.83
2019-03-24T05:27:05.298Z,72.97
2019-03-24T05:29:34.267Z,68.87
2019-03-24T05:32:03.382Z,76.70
2019-03-24T05:34:32.590Z,77.50
2019-03-24T05:37:02.335Z,74.10
2019-03-24T05:39:31.805Z,69.33
2019-03-24T05:42:01.302Z,77.60
2019-03-24T05:44:30.435Z,69.77
2019-03-24T05:46:59.324Z,74.10
2019-03-24T05:49:28.037Z,75.03
2019-03-24T05:51:57.296Z,73.80
2019-03-24T05:54:26.221Z,73.07
2019-03-24T05:56:55.249Z,75.37
2019-03-24T05:59:24.031Z,75.77
2019-03-24T06:01:53.241Z,73.93
2019-03-24T06:04:22.190Z,75.57
2019-03-24T06:06:51.051Z,79.80
2019-03-24T06:09:20.730Z,75.33
2019-03-24T06:11:50.041Z,74.03
2019-03-24T06:14:19.158Z,82.20
2019-03-24T06:16:48.635Z,79.13
2019-03-24T06:19:17.574Z,76.67
2019-03-24T06:21:46.850Z,82.27
2019-03-24T06:24:15.764Z,80.30
2019-03-24T06:26:45.067Z,79.93
2019-03-24T06:29:14.749Z,81.50
2019-03-24T06:31:43.655Z,77.40
2019-03-24T06:34:12.918Z,75.27
2019-03-24T06:36:41.770Z,81.07
2019-03-24T06:39:10.485Z,77.77
2019-03-24T06:41:39.232Z,86.90
2019-03-24T06:44:08.493Z,75.77
2019-03-24T06:46:37.779Z,69.97
2019-03-24T06:49:07.489Z,82.20
2019-03-24T06:51:37.022Z,74.83
2019-03-24T06:54:06.701Z,72.50
2019-03-24T06:56:36.525Z,72.73
2019-03-24T06:59:05.482Z,75.20
2019-03-24T07:01:50.992Z,75.53
2019-03-24T07:04:31.444Z,71.93
2019-03-24T07:07:07.130Z,84.53
2019-03-24T07:09:45.222Z,76.70
2019-03-24T07:12:15.038Z,78.30
2019-03-24T07:14:57.727Z,70.03
2019-03-24T07:17:37.579Z,79.43
2019-03-24T07:20:11.294Z,76.20
2019-03-24T07:22:50.379Z,78.13
2019-03-24T07:25:30.197Z,69.30
2019-03-24T07:28:13.772Z,74.57
2019-03-24T07:30:55.570Z,74.83
2019-03-24T07:33:27.811Z,73.03
2019-03-24T07:36:05.014Z,73.67
2019-03-24T07:38:42.703Z,70.37
2019-03-24T07:41:16.931Z,67.83
2019-03-24T07:44:03.169Z,65.30
2019-03-24T07:46:57.614Z,63.77
2019-03-24T07:49:31.677Z,65.63
2019-03-24T07:52:05.768Z,68.87
2019-03-24T07:54:43.692Z,62.20
2019-03-24T07:57:23.229Z,71.07
2019-03-24T08:00:04.976Z,63.63
2019-03-24T08:02:50.665Z,67.33
2019-03-24T08:05:22.460Z,68.03
2019-03-24T08:08:00.000Z,63.30
2019-03-24T08:10:46.630Z,65.43
2019-03-24T08:13:38.069Z,70.60
2019-03-24T08:16:13.726Z,71.30
2019-03-24T08:18:50.077Z,68.87
2019-03-24T08:21:29.447Z,70.73
2019-03-24T08:24:07.506Z,72.23
2019-03-24T08:26:42.379Z,74.07
2019-03-24T08:29:20.292Z,74.13
2019-03-24T08:31:58.243Z,76.13
2019-03-24T08:34:38.005Z,70.20
2019-03-24T08:37:11.947Z,74.33
2019-03-24T08:39:50.277Z,67.73
2019-03-24T08:42:27.969Z,71.43
2019-03-24T08:45:08.786Z,77.83
2019-03-24T08:47:49.939Z,72.87
2019-03-24T08:50:26.383Z,78.00
2019-03-24T08:53:02.492Z,79.93
2019-03-24T08:55:40.328Z,76.37
2019-03-24T08:58:17.603Z,77.03
2019-03-24T09:00:57.578Z,75.40
2019-03-24T09:03:35.087Z,73.07
2019-03-24T09:06:16.466Z,75.83
2019-03-24T09:08:52.719Z,77.60
2019-03-24T09:11:31.524Z,78.90
2019-03-24T09:14:04.583Z,76.07
2019-03-24T09:16:52.640Z,80.93
2019-03-24T09:19:26.809Z,80.80
2019-03-24T09:22:05.555Z,78.47
2019-03-24T09:24:38.811Z,79.37
2019-03-24T09:27:18.704Z,74.80
2019-03-24T09:29:55.801Z,87.20
2019-03-24T09:32:44.540Z,76.03
2019-03-24T09:35:24.687Z,79.67
2019-03-24T09:38:01.127Z,76.50
2019-03-24T09:40:38.342Z,70.33
2019-03-24T09:43:17.436Z,68.97
2019-03-24T09:45:56.059Z,70.53
2019-03-24T09:48:33.466Z,66.23
2019-03-24T09:51:15.582Z,66.57
2019-03-24T09:53:55.208Z,67.13
2019-03-24T09:56:40.428Z,70.60
2019-03-24T09:59:18.857Z,63.47
2019-03-24T10:02:01.606Z,67.03
2019-03-24T10:04:42.823Z,63.53
2019-03-24T10:07:27.047Z,62.83
2019-03-24T10:10:03.058Z,62.33
2019-03-24T10:12:37.905Z,62.77
2019-03-24T10:15:15.394Z,61.73
2019-03-24T10:17:50.162Z,62.67
2019-03-24T10:20:27.591Z,62.97
2019-03-24T10:23:02.706Z,59.30
2019-03-24T10:25:42.804Z,56.73
2019-03-24T10:28:13.268Z,55.60
2019-03-24T10:30:47.157Z,53.73
2019-03-24T10:33:25.213Z,56.67
2019-03-24T10:36:02.115Z,54.17
2019-03-24T10:38:43.553Z,53.17
2019-03-24T10:41:20.198Z,56.67
2019-03-24T10:44:00.189Z,57.63
2019-03-24T10:46:39.178Z,57.97
2019-03-24T10:49:24.461Z,53.83
2019-03-24T10:51:55.762Z,55.87
2019-03-24T10:54:42.091Z,59.77
2019-03-24T10:57:22.795Z,58.23
2019-03-24T11:00:00.122Z,52.90
2019-03-24T11:02:35.500Z,55.73
2019-03-24T11:05:12.205Z,60.67
2019-03-24T11:08:02.387Z,73.97
2019-03-24T11:10:40.166Z,50.43
2019-03-24T11:13:19.423Z,47.03
2019-03-24T11:15:59.684Z,42.93
2019-03-24T11:18:33.072Z,39.83
2019-03-24T11:21:24.634Z,41.00
2019-03-24T11:24:05.827Z,38.63
2019-03-24T11:26:41.168Z,36.77
2019-03-24T11:29:17.179Z,38.53
2019-03-24T11:31:52.023Z,41.87
2019-03-24T11:34:29.240Z,35.63
2019-03-24T11:37:07.172Z,34.73
2019-03-24T11:39:43.138Z,36.80
2019-03-24T11:42:19.568Z,33.00
2019-03-24T11:45:00.445Z,36.00
2019-03-24T11:47:36.879Z,34.73
2019-03-24T11:52:51.802Z,33.07
2019-03-24T11:55:28.004Z,26.87
2019-03-24T11:58:08.700Z,27.83
2019-03-24T12:00:45.143Z,31.43
2019-03-24T12:03:20.377Z,25.47
2019-03-24T12:05:57.372Z,28.57
2019-03-24T12:08:31.907Z,24.77
2019-03-24T12:11:08.508Z,22.43
2019-03-24T12:13:45.597Z,23.53
2019-03-24T12:16:24.495Z,24.40
2019-03-24T12:19:05.325Z,26.47
2019-03-24T12:21:44.092Z,18.10
2019-03-24T12:24:26.987Z,22.93
2019-03-24T12:27:06.550Z,19.10
2019-03-24T12:29:40.713Z,20.43
2019-03-24T12:32:18.580Z,21.43
2019-03-24T12:34:53.380Z,21.90
2019-03-24T12:37:28.358Z,18.33
2019-03-24T12:40:05.608Z,17.73
2019-03-24T12:42:43.099Z,15.83
2019-03-24T12:45:20.861Z,17.23
2019-03-24T12:48:02.939Z,15.53
2019-03-24T12:50:38.728Z,15.30
2019-03-24T12:53:16.383Z,14.80
2019-03-24T12:55:55.263Z,16.83
2019-03-24T12:58:35.042Z,17.80
2019-03-24T13:01:12.391Z,13.43
2019-03-24T13:03:49.148Z,13.07
2019-03-24T13:06:25.419Z,15.03
2019-03-24T13:09:04.418Z,12.03
2019-03-24T13:11:41.062Z,12.93
2019-03-24T13:14:15.102Z,12.17
2019-03-24T13:16:53.602Z,12.23
2019-03-24T13:19:30.551Z,12.23
2019-03-24T13:22:04.384Z,10.90
2019-03-24T13:24:34.396Z,11.63
2019-03-24T13:27:13.090Z,9.97
2019-03-24T13:29:46.897Z,9.07
2019-03-24T13:32:22.211Z,10.70
2019-03-24T13:35:04.723Z,9.67
2019-03-24T13:37:44.082Z,8.77
2019-03-24T13:40:23.514Z,10.00
2019-03-24T13:43:03.060Z,9.50
2019-03-24T13:45:38.472Z,9.07
2019-03-24T13:48:17.925Z,9.87
2019-03-24T13:51:01.209Z,9.73
2019-03-24T13:53:31.249Z,10.57
2019-03-24T13:56:09.012Z,9.97
2019-03-24T13:58:46.529Z,10.27
2019-03-24T14:01:25.637Z,9.10
2019-03-24T14:04:00.671Z,11.50
2019-03-24T14:06:37.340Z,9.70
2019-03-24T14:09:17.012Z,12.70
2019-03-24T14:11:55.235Z,13.03
2019-03-24T14:14:33.097Z,12.30
2019-03-24T14:17:09.149Z,14.03
2019-03-24T14:19:46.341Z,13.37
2019-03-24T14:22:19.229Z,12.43
2019-03-24T14:24:56.665Z,10.40
2019-03-24T14:27:36.487Z,12.17
2019-03-24T14:30:17.554Z,12.97
2019-03-24T14:32:56.692Z,15.33
2019-03-24T14:35:33.350Z,11.80
2019-03-24T14:38:09.898Z,12.33
2019-03-24T14:40:44.819Z,14.40
2019-03-24T14:43:25.038Z,10.37
2019-03-24T14:46:04.087Z,17.90
2019-03-24T14:48:44.041Z,18.93
2019-03-24T14:51:20.439Z,12.87
2019-03-24T14:56:24.911Z,11.80
2019-03-24T14:59:05.060Z,16.40
2019-03-24T15:01:41.211Z,13.67
2019-03-24T15:04:22.785Z,19.17
2019-03-24T15:07:02.323Z,17.53
2019-03-24T15:09:38.242Z,15.23
2019-03-24T15:12:18.041Z,15.17
2019-03-24T15:14:54.330Z,12.83
2019-03-24T15:17:33.647Z,13.50
2019-03-24T15:20:07.432Z,15.37
2019-03-24T15:22:46.027Z,18.23
2019-03-24T15:25:22.268Z,16.83
2019-03-24T15:28:04.828Z,13.13
2019-03-24T15:30:39.533Z,14.60
2019-03-24T15:33:13.936Z,13.63
2019-03-24T15:36:01.612Z,14.53
2019-03-24T15:38:31.116Z,13.60
2019-03-24T15:41:03.910Z,16.07
2019-03-24T15:43:37.204Z,16.43
2019-03-24T15:46:17.871Z,15.30
2019-03-24T15:48:53.908Z,15.00
2019-03-24T15:51:28.393Z,14.73
2019-03-24T15:54:09.621Z,15.60
2019-03-24T15:56:48.968Z,14.67
2019-03-24T15:59:29.543Z,14.77
2019-03-24T16:02:06.631Z,14.23
2019-03-24T16:04:40.171Z,15.97
2019-03-24T16:07:16.062Z,18.23
2019-03-24T16:09:51.463Z,16.30
2019-03-24T16:12:29.180Z,17.27
2019-03-24T16:15:05.724Z,15.17
2019-03-24T16:17:48.207Z,16.67
2019-03-24T16:20:23.769Z,17.73
2019-03-24T16:23:00.370Z,15.63
2019-03-24T16:25:39.118Z,18.13
2019-03-24T16:28:14.744Z,18.47
2019-03-24T16:30:51.515Z,16.43
2019-03-24T16:33:29.626Z,14.43
2019-03-24T16:36:09.508Z,16.23
2019-03-24T16:38:49.363Z,22.30
2019-03-24T16:41:26.273Z,17.60
2019-03-24T16:44:03.479Z,21.87
2019-03-24T16:46:40.481Z,17.33
2019-03-24T16:49:21.778Z,18.43
2019-03-24T16:51:57.346Z,19.27
2019-03-24T16:54:35.845Z,20.23
2019-03-24T16:57:17.729Z,16.67
2019-03-24T16:59:57.864Z,17.87
2019-03-24T17:02:35.673Z,22.73
2019-03-24T17:05:16.877Z,18.87
2019-03-24T17:07:55.779Z,19.47
2019-03-24T17:10:34.511Z,14.47
2019-03-24T17:13:11.713Z,20.83
2019-03-24T17:15:50.999Z,17.07
2019-03-24T17:18:33.105Z,18.10
2019-03-24T17:21:09.455Z,20.33
2019-03-24T17:23:45.571Z,20.60
2019-03-24T17:26:31.431Z,21.97
2019-03-24T17:29:04.554Z,20.03
2019-03-24T17:31:43.395Z,20.87
2019-03-24T17:34:23.877Z,21.57
2019-03-24T17:36:59.194Z,23.50
2019-03-24T17:39:38.187Z,20.67
2019-03-24T17:42:18.039Z,23.20
2019-03-24T17:44:56.606Z,22.27
2019-03-24T17:47:32.344Z,21.40
2019-03-24T17:50:17.677Z,18.80
2019-03-24T17:53:00.339Z,22.70
2019-03-24T17:55:37.055Z,22.37
2019-03-24T17:58:22.382Z,20.77
2019-03-24T18:00:55.629Z,24.70
2019-03-24T18:03:34.633Z,21.33
2019-03-24T18:06:11.455Z,21.37
2019-03-24T18:08:53.100Z,17.13
2019-03-24T18:11:32.756Z,22.23
2019-03-24T18:14:11.376Z,22.50
2019-03-24T18:16:50.189Z,20.50
2019-03-24T18:19:32.603Z,18.13
2019-03-24T18:22:11.326Z,19.20
2019-03-24T18:24:41.352Z,22.10
2019-03-24T18:27:19.314Z,21.33
2019-03-24T18:30:00.116Z,21.13
2019-03-24T18:32:37.334Z,21.03
2019-03-24T18:35:13.485Z,25.27
2019-03-24T18:37:50.039Z,25.20
2019-03-24T18:40:25.722Z,17.80
2019-03-24T18:43:03.361Z,20.90
2019-03-24T18:45:41.314Z,24.60
2019-03-24T18:48:20.143Z,25.07
2019-03-24T18:50:55.436Z,22.57
2019-03-24T18:53:30.619Z,23.07
2019-03-24T18:56:08.800Z,21.63
2019-03-24T18:58:44.459Z,22.73
2019-03-24T19:01:20.367Z,24.77
2019-03-24T19:03:50.321Z,26.43
2019-03-24T19:06:28.370Z,27.57
2019-03-24T19:09:04.045Z,25.27
2019-03-24T19:11:41.688Z,26.20
2019-03-24T19:14:21.594Z,23.83
2019-03-24T19:17:06.748Z,26.43
2019-03-24T19:19:40.850Z,23.40
2019-03-24T19:22:33.337Z,22.23
2019-03-24T19:25:01.115Z,24.90
2019-03-24T19:27:34.273Z,28.40
2019-03-24T19:30:08.482Z,23.20
2019-03-24T19:32:47.162Z,23.50
2019-03-24T19:35:22.924Z,24.70
2019-03-24T19:38:02.797Z,17.87
2019-03-24T19:40:39.476Z,23.27
2019-03-24T19:43:18.602Z,20.53
2019-03-24T19:45:57.654Z,20.87
2019-03-24T19:48:33.660Z,22.57
2019-03-24T19:51:13.250Z,22.67
2019-03-24T19:53:51.435Z,22.37
2019-03-24T19:56:28.061Z,17.27
2019-03-24T19:59:07.063Z,23.43
2019-03-24T20:01:41.783Z,29.27
2019-03-24T20:04:19.348Z,32.87
2019-03-24T20:06:58.021Z,27.33
2019-03-24T20:09:36.971Z,21.57
2019-03-24T20:12:15.918Z,24.40
2019-03-24T20:14:56.903Z,26.27
2019-03-24T20:17:34.197Z,24.47
2019-03-24T20:20:08.460Z,23.00
2019-03-24T20:22:55.590Z,28.07
2019-03-24T20:25:25.574Z,25.13
2019-03-24T20:28:04.967Z,20.77
2019-03-24T20:30:43.918Z,21.83
2019-03-24T20:33:15.064Z,21.60
2019-03-24T20:35:45.503Z,26.17
2019-03-24T20:38:14.988Z,25.97
2019-03-24T20:40:45.075Z,22.07
2019-03-24T20:43:14.704Z,22.03
2019-03-24T20:45:44.894Z,23.57
2019-03-24T20:48:14.588Z,25.40
2019-03-24T20:50:43.556Z,20.73
2019-03-24T20:53:18.312Z,21.13
2019-03-24T20:55:48.064Z,19.60
2019-03-24T20:58:17.262Z,24.23
2019-03-24T21:00:48.112Z,23.87
2019-03-24T21:03:17.178Z,21.73
2019-03-24T21:05:46.464Z,24.37
2019-03-24T21:08:17.237Z,22.47
2019-03-24T21:10:46.517Z,23.73
2019-03-24T21:13:15.821Z,25.03
2019-03-24T21:15:44.842Z,24.33
2019-03-24T21:18:14.609Z,24.33
2019-03-24T21:20:43.615Z,20.67
2019-03-24T21:23:13.439Z,26.33
2019-03-24T21:25:42.414Z,22.90
2019-03-24T21:28:11.652Z,19.83
2019-03-24T21:30:41.111Z,19.90
2019-03-24T21:33:10.605Z,19.97
2019-03-24T21:35:39.926Z,23.47
2019-03-24T21:38:08.968Z,21.57
2019-03-24T21:40:38.635Z,21.53
2019-03-24T21:43:08.328Z,22.70
2019-03-24T21:45:37.855Z,27.33
2019-03-24T21:48:07.209Z,23.90
2019-03-24T21:50:36.492Z,21.33
2019-03-24T21:53:05.718Z,22.37
2019-03-24T21:55:35.434Z,26.00
2019-03-24T21:58:04.821Z,26.10
2019-03-24T22:00:35.397Z,24.80
2019-03-24T22:03:05.658Z,23.87
2019-03-24T22:05:34.829Z,22.00
2019-03-24T22:08:04.104Z,23.93
2019-03-24T22:14:33.275Z,24.53
2019-03-24T22:17:02.516Z,23.40
2019-03-24T22:19:31.981Z,24.10
2019-03-24T22:22:01.085Z,23.90
2019-03-24T22:24:30.809Z,27.80
2019-03-24T22:27:00.561Z,22.53
2019-03-24T22:29:30.097Z,27.83
2019-03-24T22:31:59.700Z,28.27
2019-03-24T22:34:29.226Z,22.33
2019-03-24T22:36:58.747Z,23.30
2019-03-24T22:39:28.386Z,27.67
2019-03-24T22:41:58.125Z,23.50
2019-03-24T22:44:27.388Z,23.43
2019-03-24T22:46:57.107Z,27.17
2019-03-24T22:49:26.085Z,26.80
2019-03-24T22:52:06.595Z,31.43
2019-03-24T22:54:26.064Z,29.27
2019-03-24T22:56:55.334Z,26.33
2019-03-24T22:59:25.209Z,28.97
2019-03-24T23:01:54.381Z,27.83
2019-03-24T23:04:24.049Z,26.47
2019-03-24T23:06:52.938Z,33.07
2019-03-24T23:09:22.518Z,28.20
2019-03-24T23:11:51.540Z,29.47
2019-03-24T23:14:20.477Z,30.20
2019-03-24T23:16:50.170Z,30.20
2019-03-24T23:19:19.093Z,31.90
2019-03-24T23:21:48.591Z,32.67
2019-03-24T23:24:18.282Z,28.43
2019-03-24T23:26:47.555Z,32.43
2019-03-24T23:29:16.497Z,37.70
2019-03-24T23:31:45.758Z,31.30
2019-03-24T23:34:14.813Z,33.00
2019-03-24T23:36:44.529Z,35.90
2019-03-24T23:39:13.505Z,34.90
2019-03-24T23:41:42.715Z,37.27
2019-03-24T23:44:12.025Z,34.70
2019-03-24T23:46:41.304Z,36.60
2019-03-24T23:49:10.824Z,33.13
2019-03-24T23:51:39.782Z,34.47
2019-03-24T23:54:08.849Z,32.77
2019-03-24T23:56:37.910Z,40.87
2019-03-24T23:59:07.415Z,41.30
